Main page
METAR-TAF:

METAR-TAF

Airports :

Nouakchott–Oumtounsy International Airport

Nouakchott, Mauritania

latitude: 18-18-36N, longitude: 015-58-11W, elevation: 3 m

Current weather observation

The report was made 23 minutes ago, at 04:00 UTC
Wind 12 kt from the Northwest
Temperature 23°C
Humidity 89%
Pressure 1013 hPa
Visibility: 8000 m

METAR: GQNO 170400Z 32012KT 8000 NSC 23/21 Q1013 NOSIG

Time: 04:23 (04:23 UTC)

Forecast

The report was made 5 hours and 23 minutes ago, at 23:00 UTC
Forecast valid from 17 at 00 UTC to 18 at 06 UTC
Wind 12 kt from the North/Northwest
Visibility: 7000 m
Probability 30% :
Temporary
from 17 at 02 UTC to 17 at 08 UTC
Broken clouds at a height of 800 ft

TAF: GQNO 162300Z 1700/1806 34012KT 7000 NSC PROB30 TEMPO 1702/1708 BKN008

Weather observations and forecasts of more than 4000 airports (METAR and TAF reports).

The available stations are represented by yellow and red dots on the map.

Hover mouse over dot to see the name of the station.

Then click to see weather observations and forecasts.

To change the map : click on the green buttons with a black cross to zoom in, on the green button with a dash to zoom out, or on the green arrows for adjacent maps.


METAR-TAF: